sensor_id;sensor_type;location;lat;lon;timestamp;P1;durP1;ratioP1;P2;durP2;ratioP2
78995;SDS011;68401;47.192;-1.552;2023-05-14T00:00:16;30.77;;;20.20;;
78995;SDS011;68401;47.192;-1.552;2023-05-14T00:02:42;29.55;;;19.25;;
78995;SDS011;68401;47.192;-1.552;2023-05-14T00:05:07;26.10;;;20.67;;
78995;SDS011;68401;47.192;-1.552;2023-05-14T00:07:33;25.10;;;19.58;;
78995;SDS011;68401;47.192;-1.552;2023-05-14T00:09:58;26.83;;;18.98;;
78995;SDS011;68401;47.192;-1.552;2023-05-14T00:12:24;29.20;;;20.48;;
78995;SDS011;68401;47.192;-1.552;2023-05-14T00:14:51;26.15;;;19.77;;
78995;SDS011;68401;47.192;-1.552;2023-05-14T00:17:17;24.02;;;17.80;;
78995;SDS011;68401;47.192;-1.552;2023-05-14T00:19:42;26.45;;;19.30;;
78995;SDS011;68401;47.192;-1.552;2023-05-14T00:22:08;32.72;;;20.27;;
78995;SDS011;68401;47.192;-1.552;2023-05-14T00:24:34;28.05;;;18.73;;
78995;SDS011;68401;47.192;-1.552;2023-05-14T00:27:00;24.90;;;20.15;;
78995;SDS011;68401;47.192;-1.552;2023-05-14T00:29:25;26.00;;;18.17;;
78995;SDS011;68401;47.192;-1.552;2023-05-14T00:31:51;29.92;;;18.42;;
78995;SDS011;68401;47.192;-1.552;2023-05-14T00:34:16;27.00;;;19.70;;
78995;SDS011;68401;47.192;-1.552;2023-05-14T00:36:41;27.35;;;18.45;;
78995;SDS011;68401;47.192;-1.552;2023-05-14T00:39:07;26.50;;;17.58;;
78995;SDS011;68401;47.192;-1.552;2023-05-14T00:41:32;29.85;;;18.95;;
78995;SDS011;68401;47.192;-1.552;2023-05-14T00:43:58;27.70;;;20.70;;
78995;SDS011;68401;47.192;-1.552;2023-05-14T00:46:23;28.88;;;19.73;;
78995;SDS011;68401;47.192;-1.552;2023-05-14T00:48:49;26.05;;;18.02;;
78995;SDS011;68401;47.192;-1.552;2023-05-14T00:51:14;23.35;;;17.65;;
78995;SDS011;68401;47.192;-1.552;2023-05-14T00:53:40;32.13;;;19.98;;
78995;SDS011;68401;47.192;-1.552;2023-05-14T00:56:06;28.70;;;20.33;;
78995;SDS011;68401;47.192;-1.552;2023-05-14T00:58:32;27.38;;;20.30;;
78995;SDS011;68401;47.192;-1.552;2023-05-14T01:00:57;28.45;;;19.30;;
78995;SDS011;68401;47.192;-1.552;2023-05-14T01:03:23;27.23;;;20.38;;
78995;SDS011;68401;47.192;-1.552;2023-05-14T01:11:29;25.98;;;19.27;;
78995;SDS011;68401;47.192;-1.552;2023-05-14T01:17:10;28.05;;;20.58;;
78995;SDS011;68401;47.192;-1.552;2023-05-14T01:19:38;30.05;;;20.77;;
78995;SDS011;68401;47.192;-1.552;2023-05-14T01:22:04;27.88;;;20.48;;
78995;SDS011;68401;47.192;-1.552;2023-05-14T01:24:30;31.02;;;19.65;;
78995;SDS011;68401;47.192;-1.552;2023-05-14T01:26:57;32.40;;;21.05;;
78995;SDS011;68401;47.192;-1.552;2023-05-14T01:30:33;30.02;;;20.35;;
78995;SDS011;68401;47.192;-1.552;2023-05-14T01:32:32;29.45;;;18.80;;
78995;SDS011;68401;47.192;-1.552;2023-05-14T01:34:57;37.13;;;22.00;;
78995;SDS011;68401;47.192;-1.552;2023-05-14T01:37:24;28.48;;;20.13;;
78995;SDS011;68401;47.192;-1.552;2023-05-14T01:39:51;27.58;;;20.42;;
78995;SDS011;68401;47.192;-1.552;2023-05-14T01:42:17;33.97;;;21.80;;
78995;SDS011;68401;47.192;-1.552;2023-05-14T01:44:43;33.25;;;22.98;;
78995;SDS011;68401;47.192;-1.552;2023-05-14T01:47:08;31.25;;;21.25;;
78995;SDS011;68401;47.192;-1.552;2023-05-14T01:49:34;33.97;;;22.13;;
78995;SDS011;68401;47.192;-1.552;2023-05-14T01:52:01;31.33;;;20.73;;
78995;SDS011;68401;47.192;-1.552;2023-05-14T01:54:26;32.50;;;21.67;;
78995;SDS011;68401;47.192;-1.552;2023-05-14T01:56:51;32.60;;;21.00;;
78995;SDS011;68401;47.192;-1.552;2023-05-14T01:59:17;30.23;;;19.50;;
78995;SDS011;68401;47.192;-1.552;2023-05-14T02:01:42;30.02;;;20.83;;
78995;SDS011;68401;47.192;-1.552;2023-05-14T02:04:08;30.90;;;21.52;;
78995;SDS011;68401;47.192;-1.552;2023-05-14T02:06:33;29.17;;;19.70;;
78995;SDS011;68401;47.192;-1.552;2023-05-14T02:08:59;29.15;;;20.58;;
78995;SDS011;68401;47.192;-1.552;2023-05-14T02:11:24;28.30;;;21.90;;
78995;SDS011;68401;47.192;-1.552;2023-05-14T02:13:50;30.65;;;20.42;;
78995;SDS011;68401;47.192;-1.552;2023-05-14T02:16:15;39.00;;;23.77;;
78995;SDS011;68401;47.192;-1.552;2023-05-14T02:18:41;34.85;;;22.30;;
78995;SDS011;68401;47.192;-1.552;2023-05-14T02:21:06;33.42;;;22.45;;
78995;SDS011;68401;47.192;-1.552;2023-05-14T02:23:31;30.65;;;22.13;;
78995;SDS011;68401;47.192;-1.552;2023-05-14T02:25:57;29.50;;;21.85;;
78995;SDS011;68401;47.192;-1.552;2023-05-14T02:28:22;34.80;;;23.10;;
78995;SDS011;68401;47.192;-1.552;2023-05-14T02:30:47;35.00;;;22.10;;
78995;SDS011;68401;47.192;-1.552;2023-05-14T02:33:13;32.47;;;20.88;;
78995;SDS011;68401;47.192;-1.552;2023-05-14T02:35:38;27.58;;;21.40;;
78995;SDS011;68401;47.192;-1.552;2023-05-14T02:38:03;39.30;;;20.88;;
78995;SDS011;68401;47.192;-1.552;2023-05-14T02:40:29;32.60;;;21.00;;
78995;SDS011;68401;47.192;-1.552;2023-05-14T02:42:55;27.67;;;20.13;;
78995;SDS011;68401;47.192;-1.552;2023-05-14T02:45:20;35.78;;;21.17;;
78995;SDS011;68401;47.192;-1.552;2023-05-14T02:47:46;36.55;;;21.23;;
78995;SDS011;68401;47.192;-1.552;2023-05-14T02:50:11;27.23;;;19.70;;
78995;SDS011;68401;47.192;-1.552;2023-05-14T02:52:37;34.40;;;21.38;;
78995;SDS011;68401;47.192;-1.552;2023-05-14T02:55:02;35.03;;;21.30;;
78995;SDS011;68401;47.192;-1.552;2023-05-14T02:57:28;34.22;;;21.73;;
78995;SDS011;68401;47.192;-1.552;2023-05-14T02:59:53;33.70;;;24.23;;
78995;SDS011;68401;47.192;-1.552;2023-05-14T03:02:19;31.75;;;20.88;;
78995;SDS011;68401;47.192;-1.552;2023-05-14T03:04:44;34.75;;;24.52;;
78995;SDS011;68401;47.192;-1.552;2023-05-14T03:07:10;33.83;;;22.48;;
78995;SDS011;68401;47.192;-1.552;2023-05-14T03:09:36;34.65;;;19.95;;
78995;SDS011;68401;47.192;-1.552;2023-05-14T03:12:01;33.33;;;21.58;;
78995;SDS011;68401;47.192;-1.552;2023-05-14T03:14:26;40.30;;;22.83;;
78995;SDS011;68401;47.192;-1.552;2023-05-14T03:16:52;30.40;;;20.60;;
78995;SDS011;68401;47.192;-1.552;2023-05-14T03:19:17;34.38;;;21.58;;
78995;SDS011;68401;47.192;-1.552;2023-05-14T03:21:42;37.03;;;23.13;;
78995;SDS011;68401;47.192;-1.552;2023-05-14T03:24:08;30.02;;;20.55;;
78995;SDS011;68401;47.192;-1.552;2023-05-14T03:26:33;30.23;;;20.83;;
78995;SDS011;68401;47.192;-1.552;2023-05-14T03:28:59;34.17;;;21.88;;
78995;SDS011;68401;47.192;-1.552;2023-05-14T03:31:24;33.10;;;22.08;;
78995;SDS011;68401;47.192;-1.552;2023-05-14T03:33:50;33.83;;;25.08;;
78995;SDS011;68401;47.192;-1.552;2023-05-14T03:36:15;38.08;;;24.20;;
78995;SDS011;68401;47.192;-1.552;2023-05-14T03:38:41;40.88;;;23.27;;
78995;SDS011;68401;47.192;-1.552;2023-05-14T03:41:07;35.53;;;22.95;;
78995;SDS011;68401;47.192;-1.552;2023-05-14T03:43:32;37.45;;;23.38;;
78995;SDS011;68401;47.192;-1.552;2023-05-14T03:45:58;38.67;;;24.52;;
78995;SDS011;68401;47.192;-1.552;2023-05-14T03:48:23;37.80;;;25.70;;
78995;SDS011;68401;47.192;-1.552;2023-05-14T03:50:49;34.20;;;24.00;;
78995;SDS011;68401;47.192;-1.552;2023-05-14T03:53:15;44.65;;;26.15;;
78995;SDS011;68401;47.192;-1.552;2023-05-14T03:55:41;38.75;;;24.75;;
78995;SDS011;68401;47.192;-1.552;2023-05-14T03:58:06;38.10;;;24.02;;
78995;SDS011;68401;47.192;-1.552;2023-05-14T04:00:37;37.55;;;24.52;;
78995;SDS011;68401;47.192;-1.552;2023-05-14T04:03:03;38.47;;;25.00;;
78995;SDS011;68401;47.192;-1.552;2023-05-14T04:05:29;38.08;;;24.63;;
78995;SDS011;68401;47.192;-1.552;2023-05-14T04:07:54;38.88;;;24.63;;
78995;SDS011;68401;47.192;-1.552;2023-05-14T04:10:20;35.42;;;23.35;;
78995;SDS011;68401;47.192;-1.552;2023-05-14T04:12:45;40.45;;;22.35;;
78995;SDS011;68401;47.192;-1.552;2023-05-14T04:15:11;41.33;;;23.08;;
78995;SDS011;68401;47.192;-1.552;2023-05-14T04:17:36;36.10;;;24.42;;
78995;SDS011;68401;47.192;-1.552;2023-05-14T04:20:02;36.20;;;22.80;;
78995;SDS011;68401;47.192;-1.552;2023-05-14T04:22:28;35.88;;;21.40;;
78995;SDS011;68401;47.192;-1.552;2023-05-14T04:24:53;36.42;;;22.73;;
78995;SDS011;68401;47.192;-1.552;2023-05-14T04:27:19;36.13;;;21.33;;
78995;SDS011;68401;47.192;-1.552;2023-05-14T04:29:45;31.13;;;21.92;;
78995;SDS011;68401;47.192;-1.552;2023-05-14T04:32:11;33.03;;;23.23;;
78995;SDS011;68401;47.192;-1.552;2023-05-14T04:34:36;33.20;;;23.00;;
78995;SDS011;68401;47.192;-1.552;2023-05-14T04:37:02;33.90;;;22.80;;
78995;SDS011;68401;47.192;-1.552;2023-05-14T04:39:28;35.22;;;22.38;;
78995;SDS011;68401;47.192;-1.552;2023-05-14T04:41:53;36.80;;;23.05;;
78995;SDS011;68401;47.192;-1.552;2023-05-14T04:44:19;31.58;;;22.95;;
78995;SDS011;68401;47.192;-1.552;2023-05-14T04:46:44;32.95;;;22.45;;
78995;SDS011;68401;47.192;-1.552;2023-05-14T04:49:10;34.45;;;21.98;;
78995;SDS011;68401;47.192;-1.552;2023-05-14T04:51:35;32.03;;;21.65;;
78995;SDS011;68401;47.192;-1.552;2023-05-14T04:54:01;31.15;;;20.10;;
78995;SDS011;68401;47.192;-1.552;2023-05-14T04:56:26;31.55;;;22.02;;
78995;SDS011;68401;47.192;-1.552;2023-05-14T04:58:51;36.40;;;23.73;;
78995;SDS011;68401;47.192;-1.552;2023-05-14T05:01:17;33.13;;;21.65;;
78995;SDS011;68401;47.192;-1.552;2023-05-14T05:03:42;30.95;;;20.50;;
78995;SDS011;68401;47.192;-1.552;2023-05-14T05:06:07;33.50;;;23.40;;
78995;SDS011;68401;47.192;-1.552;2023-05-14T05:08:33;33.95;;;22.83;;
78995;SDS011;68401;47.192;-1.552;2023-05-14T05:10:58;36.65;;;23.92;;
78995;SDS011;68401;47.192;-1.552;2023-05-14T05:13:24;34.33;;;21.38;;
78995;SDS011;68401;47.192;-1.552;2023-05-14T05:15:49;32.08;;;22.05;;
78995;SDS011;68401;47.192;-1.552;2023-05-14T05:18:15;33.67;;;21.48;;
78995;SDS011;68401;47.192;-1.552;2023-05-14T05:20:40;31.98;;;21.70;;
78995;SDS011;68401;47.192;-1.552;2023-05-14T05:23:05;33.00;;;21.88;;
78995;SDS011;68401;47.192;-1.552;2023-05-14T05:25:31;33.75;;;21.00;;
78995;SDS011;68401;47.192;-1.552;2023-05-14T05:27:56;32.88;;;21.05;;
78995;SDS011;68401;47.192;-1.552;2023-05-14T05:30:22;31.10;;;20.73;;
78995;SDS011;68401;47.192;-1.552;2023-05-14T05:32:47;31.50;;;20.23;;
78995;SDS011;68401;47.192;-1.552;2023-05-14T05:35:12;29.90;;;20.30;;
78995;SDS011;68401;47.192;-1.552;2023-05-14T05:37:38;31.20;;;21.30;;
78995;SDS011;68401;47.192;-1.552;2023-05-14T05:40:03;33.85;;;22.23;;
78995;SDS011;68401;47.192;-1.552;2023-05-14T05:42:30;33.70;;;21.85;;
78995;SDS011;68401;47.192;-1.552;2023-05-14T05:44:55;32.53;;;22.15;;
78995;SDS011;68401;47.192;-1.552;2023-05-14T05:47:21;32.95;;;22.17;;
78995;SDS011;68401;47.192;-1.552;2023-05-14T05:49:46;29.77;;;19.95;;
78995;SDS011;68401;47.192;-1.552;2023-05-14T05:52:11;32.58;;;20.38;;
78995;SDS011;68401;47.192;-1.552;2023-05-14T05:54:37;28.50;;;20.40;;
78995;SDS011;68401;47.192;-1.552;2023-05-14T05:57:03;32.75;;;22.48;;
78995;SDS011;68401;47.192;-1.552;2023-05-14T05:59:29;29.83;;;20.60;;
78995;SDS011;68401;47.192;-1.552;2023-05-14T06:01:55;30.90;;;19.45;;
78995;SDS011;68401;47.192;-1.552;2023-05-14T06:04:20;27.73;;;19.85;;
78995;SDS011;68401;47.192;-1.552;2023-05-14T06:06:45;28.58;;;20.55;;
78995;SDS011;68401;47.192;-1.552;2023-05-14T06:09:11;27.02;;;19.73;;
78995;SDS011;68401;47.192;-1.552;2023-05-14T06:11:37;29.80;;;19.90;;
78995;SDS011;68401;47.192;-1.552;2023-05-14T06:14:02;26.63;;;19.55;;
78995;SDS011;68401;47.192;-1.552;2023-05-14T06:16:28;32.22;;;19.77;;
78995;SDS011;68401;47.192;-1.552;2023-05-14T06:18:54;30.42;;;21.35;;
78995;SDS011;68401;47.192;-1.552;2023-05-14T06:21:19;29.40;;;17.85;;
78995;SDS011;68401;47.192;-1.552;2023-05-14T06:23:45;26.98;;;18.77;;
78995;SDS011;68401;47.192;-1.552;2023-05-14T06:26:10;29.35;;;20.67;;
78995;SDS011;68401;47.192;-1.552;2023-05-14T06:28:36;29.35;;;19.88;;
78995;SDS011;68401;47.192;-1.552;2023-05-14T06:31:01;28.33;;;18.95;;
78995;SDS011;68401;47.192;-1.552;2023-05-14T06:33:27;25.58;;;18.05;;
78995;SDS011;68401;47.192;-1.552;2023-05-14T06:35:59;26.63;;;17.80;;
78995;SDS011;68401;47.192;-1.552;2023-05-14T06:38:25;28.48;;;19.65;;
78995;SDS011;68401;47.192;-1.552;2023-05-14T06:40:50;26.50;;;18.83;;
78995;SDS011;68401;47.192;-1.552;2023-05-14T06:43:17;26.25;;;19.58;;
78995;SDS011;68401;47.192;-1.552;2023-05-14T06:45:42;28.15;;;18.60;;
78995;SDS011;68401;47.192;-1.552;2023-05-14T06:48:08;28.50;;;21.15;;
78995;SDS011;68401;47.192;-1.552;2023-05-14T06:50:34;26.10;;;19.63;;
78995;SDS011;68401;47.192;-1.552;2023-05-14T06:52:59;25.70;;;19.52;;
78995;SDS011;68401;47.192;-1.552;2023-05-14T06:55:25;26.10;;;18.80;;
78995;SDS011;68401;47.192;-1.552;2023-05-14T06:57:50;23.30;;;18.00;;
78995;SDS011;68401;47.192;-1.552;2023-05-14T07:00:16;25.90;;;17.77;;
78995;SDS011;68401;47.192;-1.552;2023-05-14T07:02:41;24.25;;;20.00;;
78995;SDS011;68401;47.192;-1.552;2023-05-14T07:05:07;22.83;;;18.73;;
78995;SDS011;68401;47.192;-1.552;2023-05-14T07:07:33;23.98;;;17.10;;
78995;SDS011;68401;47.192;-1.552;2023-05-14T07:09:58;24.08;;;19.50;;
78995;SDS011;68401;47.192;-1.552;2023-05-14T07:12:23;24.17;;;17.90;;
78995;SDS011;68401;47.192;-1.552;2023-05-14T07:14:49;21.30;;;17.52;;
78995;SDS011;68401;47.192;-1.552;2023-05-14T07:17:15;21.75;;;17.30;;
78995;SDS011;68401;47.192;-1.552;2023-05-14T07:19:40;21.52;;;16.17;;
78995;SDS011;68401;47.192;-1.552;2023-05-14T07:22:06;21.00;;;15.82;;
78995;SDS011;68401;47.192;-1.552;2023-05-14T07:24:31;21.00;;;15.80;;
78995;SDS011;68401;47.192;-1.552;2023-05-14T07:26:56;22.42;;;17.50;;
78995;SDS011;68401;47.192;-1.552;2023-05-14T07:29:22;22.13;;;15.77;;
78995;SDS011;68401;47.192;-1.552;2023-05-14T07:31:49;20.08;;;15.55;;
78995;SDS011;68401;47.192;-1.552;2023-05-14T07:34:15;20.73;;;17.13;;
78995;SDS011;68401;47.192;-1.552;2023-05-14T07:36:40;19.90;;;15.23;;
78995;SDS011;68401;47.192;-1.552;2023-05-14T07:39:06;18.05;;;14.95;;
78995;SDS011;68401;47.192;-1.552;2023-05-14T07:41:31;18.85;;;15.73;;
78995;SDS011;68401;47.192;-1.552;2023-05-14T07:43:57;22.42;;;19.00;;
78995;SDS011;68401;47.192;-1.552;2023-05-14T07:46:22;16.65;;;14.85;;
78995;SDS011;68401;47.192;-1.552;2023-05-14T07:48:49;25.95;;;17.70;;
78995;SDS011;68401;47.192;-1.552;2023-05-14T07:51:15;21.55;;;17.60;;
78995;SDS011;68401;47.192;-1.552;2023-05-14T07:53:40;19.70;;;17.27;;
78995;SDS011;68401;47.192;-1.552;2023-05-14T07:56:06;19.60;;;16.65;;
78995;SDS011;68401;47.192;-1.552;2023-05-14T07:58:31;17.50;;;15.05;;
78995;SDS011;68401;47.192;-1.552;2023-05-14T08:00:57;20.35;;;18.25;;
78995;SDS011;68401;47.192;-1.552;2023-05-14T08:03:22;17.75;;;15.32;;
78995;SDS011;68401;47.192;-1.552;2023-05-14T08:05:47;20.50;;;15.40;;
78995;SDS011;68401;47.192;-1.552;2023-05-14T08:08:13;17.83;;;14.65;;
78995;SDS011;68401;47.192;-1.552;2023-05-14T08:10:38;17.17;;;15.38;;
78995;SDS011;68401;47.192;-1.552;2023-05-14T08:13:04;18.20;;;15.02;;
78995;SDS011;68401;47.192;-1.552;2023-05-14T08:15:29;18.65;;;16.10;;
78995;SDS011;68401;47.192;-1.552;2023-05-14T08:17:55;18.02;;;15.32;;
78995;SDS011;68401;47.192;-1.552;2023-05-14T08:20:20;21.05;;;16.08;;
78995;SDS011;68401;47.192;-1.552;2023-05-14T08:22:46;17.35;;;14.88;;
78995;SDS011;68401;47.192;-1.552;2023-05-14T08:25:11;19.02;;;15.85;;
78995;SDS011;68401;47.192;-1.552;2023-05-14T08:27:37;17.30;;;15.57;;
78995;SDS011;68401;47.192;-1.552;2023-05-14T08:30:03;18.27;;;15.85;;
78995;SDS011;68401;47.192;-1.552;2023-05-14T08:32:28;17.98;;;14.85;;
78995;SDS011;68401;47.192;-1.552;2023-05-14T08:34:54;17.23;;;15.15;;
78995;SDS011;68401;47.192;-1.552;2023-05-14T08:37:21;17.80;;;14.15;;
78995;SDS011;68401;47.192;-1.552;2023-05-14T08:39:46;19.65;;;17.58;;
78995;SDS011;68401;47.192;-1.552;2023-05-14T08:42:11;17.38;;;14.90;;
78995;SDS011;68401;47.192;-1.552;2023-05-14T08:44:38;16.00;;;13.90;;
78995;SDS011;68401;47.192;-1.552;2023-05-14T08:47:14;16.10;;;14.40;;
78995;SDS011;68401;47.192;-1.552;2023-05-14T08:49:41;16.42;;;13.52;;
78995;SDS011;68401;47.192;-1.552;2023-05-14T08:52:10;19.60;;;15.27;;
78995;SDS011;68401;47.192;-1.552;2023-05-14T08:54:36;16.25;;;14.23;;
78995;SDS011;68401;47.192;-1.552;2023-05-14T08:57:02;15.27;;;13.63;;
78995;SDS011;68401;47.192;-1.552;2023-05-14T08:59:28;17.13;;;14.65;;
78995;SDS011;68401;47.192;-1.552;2023-05-14T09:01:54;16.42;;;14.10;;
78995;SDS011;68401;47.192;-1.552;2023-05-14T09:04:21;19.45;;;15.43;;
78995;SDS011;68401;47.192;-1.552;2023-05-14T09:06:49;14.10;;;12.15;;
78995;SDS011;68401;47.192;-1.552;2023-05-14T09:09:15;19.70;;;14.13;;
78995;SDS011;68401;47.192;-1.552;2023-05-14T09:11:41;16.67;;;13.68;;
78995;SDS011;68401;47.192;-1.552;2023-05-14T09:14:09;15.13;;;13.52;;
78995;SDS011;68401;47.192;-1.552;2023-05-14T09:16:35;15.35;;;13.75;;
78995;SDS011;68401;47.192;-1.552;2023-05-14T09:19:01;13.73;;;12.13;;
78995;SDS011;68401;47.192;-1.552;2023-05-14T09:21:29;14.80;;;13.00;;
78995;SDS011;68401;47.192;-1.552;2023-05-14T09:23:56;15.10;;;11.75;;
78995;SDS011;68401;47.192;-1.552;2023-05-14T09:26:22;14.25;;;11.77;;
78995;SDS011;68401;47.192;-1.552;2023-05-14T09:28:48;14.80;;;13.13;;
78995;SDS011;68401;47.192;-1.552;2023-05-14T09:31:17;15.05;;;13.45;;
78995;SDS011;68401;47.192;-1.552;2023-05-14T09:33:47;14.25;;;12.43;;
78995;SDS011;68401;47.192;-1.552;2023-05-14T09:36:15;16.60;;;14.23;;
78995;SDS011;68401;47.192;-1.552;2023-05-14T09:38:41;14.82;;;12.43;;
78995;SDS011;68401;47.192;-1.552;2023-05-14T09:41:06;14.85;;;12.77;;
78995;SDS011;68401;47.192;-1.552;2023-05-14T09:43:31;15.73;;;12.60;;
78995;SDS011;68401;47.192;-1.552;2023-05-14T09:45:57;14.25;;;12.75;;
78995;SDS011;68401;47.192;-1.552;2023-05-14T09:48:22;13.70;;;12.20;;
78995;SDS011;68401;47.192;-1.552;2023-05-14T09:50:48;15.13;;;13.38;;
78995;SDS011;68401;47.192;-1.552;2023-05-14T09:53:13;12.10;;;10.80;;
78995;SDS011;68401;47.192;-1.552;2023-05-14T09:55:39;12.43;;;11.13;;
78995;SDS011;68401;47.192;-1.552;2023-05-14T09:58:05;12.05;;;10.02;;
78995;SDS011;68401;47.192;-1.552;2023-05-14T10:00:31;12.02;;;10.60;;
78995;SDS011;68401;47.192;-1.552;2023-05-14T10:02:57;12.38;;;10.00;;
78995;SDS011;68401;47.192;-1.552;2023-05-14T10:05:23;12.43;;;11.18;;
78995;SDS011;68401;47.192;-1.552;2023-05-14T10:07:48;11.18;;;9.70;;
78995;SDS011;68401;47.192;-1.552;2023-05-14T10:10:17;12.15;;;10.60;;
78995;SDS011;68401;47.192;-1.552;2023-05-14T10:15:15;11.52;;;10.40;;
78995;SDS011;68401;47.192;-1.552;2023-05-14T10:17:43;11.10;;;9.98;;
78995;SDS011;68401;47.192;-1.552;2023-05-14T10:20:11;13.52;;;11.07;;
78995;SDS011;68401;47.192;-1.552;2023-05-14T10:22:40;10.35;;;8.80;;
78995;SDS011;68401;47.192;-1.552;2023-05-14T10:25:06;11.10;;;9.98;;
78995;SDS011;68401;47.192;-1.552;2023-05-14T10:27:32;12.82;;;11.52;;
78995;SDS011;68401;47.192;-1.552;2023-05-14T10:29:58;12.00;;;10.73;;
78995;SDS011;68401;47.192;-1.552;2023-05-14T10:32:23;15.15;;;11.93;;
78995;SDS011;68401;47.192;-1.552;2023-05-14T10:34:50;10.40;;;9.30;;
78995;SDS011;68401;47.192;-1.552;2023-05-14T10:39:43;11.23;;;9.32;;
78995;SDS011;68401;47.192;-1.552;2023-05-14T10:42:12;13.20;;;10.18;;
78995;SDS011;68401;47.192;-1.552;2023-05-14T10:44:54;12.07;;;9.38;;
78995;SDS011;68401;47.192;-1.552;2023-05-14T10:47:25;11.55;;;10.35;;
78995;SDS011;68401;47.192;-1.552;2023-05-14T10:49:57;15.48;;;10.95;;
78995;SDS011;68401;47.192;-1.552;2023-05-14T10:52:24;9.82;;;8.82;;
78995;SDS011;68401;47.192;-1.552;2023-05-14T10:57:19;11.05;;;9.23;;
78995;SDS011;68401;47.192;-1.552;2023-05-14T10:59:49;14.10;;;10.23;;
78995;SDS011;68401;47.192;-1.552;2023-05-14T11:02:28;11.23;;;8.23;;
78995;SDS011;68401;47.192;-1.552;2023-05-14T11:07:27;10.40;;;8.60;;
78995;SDS011;68401;47.192;-1.552;2023-05-14T11:12:29;9.98;;;8.98;;
78995;SDS011;68401;47.192;-1.552;2023-05-14T11:14:55;11.55;;;9.85;;
78995;SDS011;68401;47.192;-1.552;2023-05-14T11:17:22;10.38;;;9.25;;
78995;SDS011;68401;47.192;-1.552;2023-05-14T11:19:48;10.63;;;8.32;;
78995;SDS011;68401;47.192;-1.552;2023-05-14T11:22:14;12.43;;;9.93;;
78995;SDS011;68401;47.192;-1.552;2023-05-14T11:24:39;10.88;;;9.52;;
78995;SDS011;68401;47.192;-1.552;2023-05-14T11:27:08;11.35;;;9.93;;
78995;SDS011;68401;47.192;-1.552;2023-05-14T11:29:35;12.35;;;10.13;;
78995;SDS011;68401;47.192;-1.552;2023-05-14T11:32:04;12.35;;;9.52;;
78995;SDS011;68401;47.192;-1.552;2023-05-14T11:34:30;9.95;;;8.95;;
78995;SDS011;68401;47.192;-1.552;2023-05-14T11:36:56;13.45;;;10.63;;
78995;SDS011;68401;47.192;-1.552;2023-05-14T11:39:21;10.13;;;8.63;;
78995;SDS011;68401;47.192;-1.552;2023-05-14T11:41:46;9.73;;;8.60;;
78995;SDS011;68401;47.192;-1.552;2023-05-14T11:44:12;13.05;;;10.05;;
78995;SDS011;68401;47.192;-1.552;2023-05-14T11:46:37;10.02;;;9.02;;
78995;SDS011;68401;47.192;-1.552;2023-05-14T11:49:03;8.10;;;7.30;;
78995;SDS011;68401;47.192;-1.552;2023-05-14T11:51:29;15.30;;;10.57;;
78995;SDS011;68401;47.192;-1.552;2023-05-14T11:53:54;9.40;;;8.18;;
78995;SDS011;68401;47.192;-1.552;2023-05-14T11:56:20;8.90;;;8.00;;
78995;SDS011;68401;47.192;-1.552;2023-05-14T11:58:47;12.57;;;9.10;;
78995;SDS011;68401;47.192;-1.552;2023-05-14T12:01:14;11.70;;;8.43;;
78995;SDS011;68401;47.192;-1.552;2023-05-14T12:03:40;10.05;;;8.13;;
78995;SDS011;68401;47.192;-1.552;2023-05-14T12:06:06;12.60;;;10.10;;
78995;SDS011;68401;47.192;-1.552;2023-05-14T12:08:34;10.52;;;8.50;;
78995;SDS011;68401;47.192;-1.552;2023-05-14T12:11:01;11.10;;;7.75;;
78995;SDS011;68401;47.192;-1.552;2023-05-14T12:13:30;9.75;;;8.05;;
78995;SDS011;68401;47.192;-1.552;2023-05-14T12:15:57;9.80;;;8.43;;
78995;SDS011;68401;47.192;-1.552;2023-05-14T12:18:24;16.90;;;13.00;;
78995;SDS011;68401;47.192;-1.552;2023-05-14T12:20:51;11.70;;;10.35;;
78995;SDS011;68401;47.192;-1.552;2023-05-14T12:23:29;9.27;;;8.38;;
78995;SDS011;68401;47.192;-1.552;2023-05-14T12:26:05;9.52;;;8.40;;
78995;SDS011;68401;47.192;-1.552;2023-05-14T12:28:34;9.85;;;8.82;;
78995;SDS011;68401;47.192;-1.552;2023-05-14T12:30:59;11.68;;;9.10;;
78995;SDS011;68401;47.192;-1.552;2023-05-14T12:33:25;10.55;;;8.57;;
78995;SDS011;68401;47.192;-1.552;2023-05-14T12:35:54;11.02;;;9.07;;
78995;SDS011;68401;47.192;-1.552;2023-05-14T12:38:25;7.85;;;7.10;;
78995;SDS011;68401;47.192;-1.552;2023-05-14T12:40:51;9.00;;;7.40;;
78995;SDS011;68401;47.192;-1.552;2023-05-14T12:43:16;12.75;;;8.15;;
78995;SDS011;68401;47.192;-1.552;2023-05-14T12:45:42;9.85;;;7.85;;
78995;SDS011;68401;47.192;-1.552;2023-05-14T12:48:07;12.35;;;9.18;;
78995;SDS011;68401;47.192;-1.552;2023-05-14T12:50:32;13.95;;;10.15;;
78995;SDS011;68401;47.192;-1.552;2023-05-14T12:52:58;12.98;;;9.23;;
78995;SDS011;68401;47.192;-1.552;2023-05-14T12:55:23;9.18;;;7.50;;
78995;SDS011;68401;47.192;-1.552;2023-05-14T12:57:49;10.80;;;8.38;;
78995;SDS011;68401;47.192;-1.552;2023-05-14T13:00:14;12.52;;;8.30;;
78995;SDS011;68401;47.192;-1.552;2023-05-14T13:02:40;9.52;;;8.43;;
78995;SDS011;68401;47.192;-1.552;2023-05-14T13:05:05;10.63;;;9.50;;
78995;SDS011;68401;47.192;-1.552;2023-05-14T13:07:31;10.60;;;8.82;;
78995;SDS011;68401;47.192;-1.552;2023-05-14T13:09:56;11.18;;;8.73;;
78995;SDS011;68401;47.192;-1.552;2023-05-14T13:12:22;9.65;;;8.02;;
78995;SDS011;68401;47.192;-1.552;2023-05-14T13:14:48;9.55;;;7.25;;
78995;SDS011;68401;47.192;-1.552;2023-05-14T13:17:13;12.00;;;7.25;;
78995;SDS011;68401;47.192;-1.552;2023-05-14T13:19:39;9.48;;;6.95;;
78995;SDS011;68401;47.192;-1.552;2023-05-14T13:22:04;11.23;;;7.00;;
78995;SDS011;68401;47.192;-1.552;2023-05-14T13:24:30;8.95;;;7.22;;
78995;SDS011;68401;47.192;-1.552;2023-05-14T13:26:55;7.68;;;6.90;;
78995;SDS011;68401;47.192;-1.552;2023-05-14T13:29:20;9.63;;;5.90;;
78995;SDS011;68401;47.192;-1.552;2023-05-14T13:31:46;7.50;;;5.85;;
78995;SDS011;68401;47.192;-1.552;2023-05-14T13:34:11;6.07;;;4.47;;
78995;SDS011;68401;47.192;-1.552;2023-05-14T13:36:37;7.25;;;6.20;;
78995;SDS011;68401;47.192;-1.552;2023-05-14T13:39:06;8.32;;;6.18;;
78995;SDS011;68401;47.192;-1.552;2023-05-14T13:41:31;7.70;;;6.88;;
78995;SDS011;68401;47.192;-1.552;2023-05-14T13:44:01;7.00;;;6.15;;
78995;SDS011;68401;47.192;-1.552;2023-05-14T13:46:27;7.40;;;6.60;;
78995;SDS011;68401;47.192;-1.552;2023-05-14T13:48:52;7.40;;;6.60;;
78995;SDS011;68401;47.192;-1.552;2023-05-14T13:51:18;6.88;;;6.00;;
78995;SDS011;68401;47.192;-1.552;2023-05-14T13:53:43;7.68;;;6.10;;
78995;SDS011;68401;47.192;-1.552;2023-05-14T13:56:08;8.30;;;6.55;;
78995;SDS011;68401;47.192;-1.552;2023-05-14T13:58:34;6.85;;;5.90;;
78995;SDS011;68401;47.192;-1.552;2023-05-14T14:00:59;9.07;;;6.90;;
78995;SDS011;68401;47.192;-1.552;2023-05-14T14:03:25;8.32;;;6.13;;
78995;SDS011;68401;47.192;-1.552;2023-05-14T14:05:50;6.18;;;4.97;;
78995;SDS011;68401;47.192;-1.552;2023-05-14T14:08:16;5.45;;;4.32;;
78995;SDS011;68401;47.192;-1.552;2023-05-14T14:10:42;7.03;;;4.72;;
78995;SDS011;68401;47.192;-1.552;2023-05-14T14:13:07;5.97;;;5.20;;
78995;SDS011;68401;47.192;-1.552;2023-05-14T14:15:34;7.97;;;5.82;;
78995;SDS011;68401;47.192;-1.552;2023-05-14T14:17:59;5.00;;;4.50;;
78995;SDS011;68401;47.192;-1.552;2023-05-14T14:20:25;6.82;;;5.50;;
78995;SDS011;68401;47.192;-1.552;2023-05-14T14:22:50;6.13;;;5.50;;
78995;SDS011;68401;47.192;-1.552;2023-05-14T14:25:15;6.00;;;5.40;;
78995;SDS011;68401;47.192;-1.552;2023-05-14T14:27:41;8.05;;;6.03;;